createdAt,value
2018-11-28T00:00:33.426Z,68.00
2018-11-28T00:03:05.401Z,68.10
2018-11-28T00:05:33.960Z,68.00
2018-11-28T00:08:02.373Z,68.10
2018-11-28T00:10:30.770Z,68.30
2018-11-28T00:12:59.219Z,68.60
2018-11-28T00:15:27.660Z,68.30
2018-11-28T00:17:56.031Z,68.20
2018-11-28T00:20:24.478Z,68.00
2018-11-28T00:22:52.900Z,68.20
2018-11-28T00:25:21.394Z,68.20
2018-11-28T00:27:49.817Z,68.20
2018-11-28T00:30:20.734Z,68.10
2018-11-28T00:32:49.221Z,68.20
2018-11-28T00:35:19.602Z,68.30
2018-11-28T00:37:48.133Z,68.50
2018-11-28T00:40:18.021Z,68.30
2018-11-28T00:42:46.462Z,68.20
2018-11-28T00:45:15.936Z,68.30
2018-11-28T00:47:44.392Z,68.30
2018-11-28T00:50:15.669Z,68.20
2018-11-28T00:52:44.084Z,68.20
2018-11-28T00:55:13.633Z,68.20
2018-11-28T00:57:42.054Z,68.20
2018-11-28T01:02:49.838Z,67.60
2018-11-28T01:05:18.405Z,68.00
2018-11-28T01:07:47.770Z,67.70
2018-11-28T01:10:18.522Z,67.70
2018-11-28T01:12:47.257Z,67.70
2018-11-28T01:15:16.682Z,67.70
2018-11-28T01:17:45.184Z,67.70
2018-11-28T01:20:15.937Z,67.70
2018-11-28T01:22:44.496Z,67.70
2018-11-28T01:25:13.876Z,68.00
2018-11-28T01:27:42.289Z,67.90
2018-11-28T01:30:15.638Z,67.90
2018-11-28T01:32:44.277Z,68.00
2018-11-28T01:35:14.637Z,67.90
2018-11-28T01:37:43.225Z,68.10
2018-11-28T01:40:13.621Z,67.80
2018-11-28T01:42:42.069Z,68.20
2018-11-28T01:45:13.826Z,68.20
2018-11-28T01:47:42.588Z,68.60
2018-11-28T01:50:12.268Z,68.60
2018-11-28T01:52:40.676Z,68.50
2018-11-28T01:55:10.361Z,68.30
2018-11-28T01:57:38.833Z,68.90
2018-11-28T02:00:09.866Z,68.30
2018-11-28T02:02:38.395Z,68.00
2018-11-28T02:05:07.429Z,67.70
2018-11-28T02:07:35.825Z,67.80
2018-11-28T02:10:04.730Z,67.90
2018-11-28T02:12:33.155Z,67.80
2018-11-28T02:15:01.557Z,68.00
2018-11-28T02:17:29.963Z,68.60
2018-11-28T02:19:58.379Z,67.80
2018-11-28T02:22:26.798Z,67.80
2018-11-28T02:24:55.200Z,67.90
2018-11-28T02:27:23.618Z,68.10
2018-11-28T02:29:52.022Z,68.30
2018-11-28T02:32:20.443Z,68.30
2018-11-28T02:34:49.049Z,68.20
2018-11-28T02:37:17.540Z,68.10
2018-11-28T02:39:45.953Z,67.90
2018-11-28T02:42:14.377Z,68.00
2018-11-28T02:44:42.850Z,67.90
2018-11-28T02:47:11.257Z,68.00
2018-11-28T02:49:40.123Z,68.20
2018-11-28T02:52:08.553Z,68.30
2018-11-28T02:54:36.941Z,68.60
2018-11-28T02:57:05.416Z,68.30
2018-11-28T02:59:33.891Z,68.20
2018-11-28T03:02:02.406Z,68.10
2018-11-28T03:04:30.822Z,68.10
2018-11-28T03:06:59.236Z,68.30
2018-11-28T03:09:27.640Z,68.50
2018-11-28T03:11:56.058Z,68.30
2018-11-28T03:14:24.466Z,68.50
2018-11-28T03:16:52.934Z,68.50
2018-11-28T03:19:21.398Z,68.60
2018-11-28T03:21:49.869Z,68.80
2018-11-28T03:24:18.337Z,69.70
2018-11-28T03:26:46.765Z,68.70
2018-11-28T03:29:15.362Z,68.60
2018-11-28T03:31:43.773Z,68.70
2018-11-28T03:34:12.230Z,68.80
2018-11-28T03:36:40.680Z,68.80
2018-11-28T03:39:09.686Z,68.90
2018-11-28T03:41:38.151Z,69.10
2018-11-28T03:44:06.561Z,69.30
2018-11-28T03:46:35.020Z,69.10
2018-11-28T03:49:03.456Z,70.00
2018-11-28T03:51:31.886Z,68.90
2018-11-28T03:54:00.286Z,68.90
2018-11-28T03:56:28.706Z,69.10
2018-11-28T03:58:57.129Z,69.10
2018-11-28T04:01:25.538Z,69.10
2018-11-28T04:03:53.966Z,69.10
2018-11-28T04:06:22.380Z,69.10
2018-11-28T04:08:50.791Z,69.50
2018-11-28T04:11:19.705Z,69.50
2018-11-28T04:13:48.139Z,69.50
2018-11-28T04:16:16.551Z,69.50
2018-11-28T04:18:45.075Z,69.50
2018-11-28T04:21:13.488Z,69.40
2018-11-28T04:23:41.934Z,69.40
2018-11-28T04:26:10.373Z,69.50
2018-11-28T04:28:38.785Z,69.30
2018-11-28T04:31:07.166Z,69.40
2018-11-28T04:33:35.581Z,70.10
2018-11-28T04:36:04.009Z,69.50
2018-11-28T04:38:32.481Z,69.70
2018-11-28T04:41:00.894Z,69.60
2018-11-28T04:43:29.292Z,69.60
2018-11-28T04:45:57.746Z,69.70
2018-11-28T04:48:26.174Z,69.50
2018-11-28T04:50:54.598Z,70.60
2018-11-28T04:53:23.053Z,69.80
2018-11-28T04:55:51.490Z,69.70
2018-11-28T04:58:19.925Z,69.70
2018-11-28T05:00:48.332Z,69.70
2018-11-28T05:03:16.743Z,69.70
2018-11-28T05:05:45.302Z,70.50
2018-11-28T05:08:13.827Z,70.10
2018-11-28T05:10:42.245Z,69.80
2018-11-28T05:13:10.669Z,69.60
2018-11-28T05:15:39.126Z,69.70
2018-11-28T05:18:07.601Z,69.50
2018-11-28T05:20:36.011Z,69.80
2018-11-28T05:23:05.613Z,69.60
2018-11-28T05:25:34.903Z,69.50
2018-11-28T05:28:03.306Z,69.50
2018-11-28T05:30:32.503Z,69.50
2018-11-28T05:33:01.363Z,69.70
2018-11-28T05:35:35.727Z,69.90
2018-11-28T05:38:12.886Z,69.80
2018-11-28T05:40:42.494Z,70.00
2018-11-28T05:43:10.898Z,69.80
2018-11-28T05:45:39.289Z,69.80
2018-11-28T05:48:07.727Z,69.80
2018-11-28T05:50:36.163Z,69.80
2018-11-28T05:53:04.568Z,70.00
2018-11-28T05:55:32.993Z,70.00
2018-11-28T05:58:01.520Z,70.10
2018-11-28T06:00:33.559Z,70.00
2018-11-28T06:03:02.033Z,69.80
2018-11-28T06:05:30.510Z,69.80
2018-11-28T06:07:58.978Z,69.80
2018-11-28T06:10:27.382Z,69.80
2018-11-28T06:12:55.841Z,69.80
2018-11-28T06:15:24.330Z,69.90
2018-11-28T06:31:42.968Z,70.20
2018-11-28T06:34:11.405Z,70.20
2018-11-28T06:36:39.839Z,70.30
2018-11-28T06:39:09.371Z,69.60
2018-11-28T06:41:37.847Z,69.80
2018-11-28T06:44:06.246Z,70.10
2018-11-28T06:46:34.644Z,70.10
2018-11-28T06:49:03.119Z,70.20
2018-11-28T06:51:31.550Z,70.40
2018-11-28T06:53:59.969Z,70.40
2018-11-28T06:56:28.382Z,70.40
2018-11-28T06:58:56.782Z,70.60
2018-11-28T07:01:25.205Z,70.60
2018-11-28T07:03:53.628Z,70.50
2018-11-28T07:06:22.331Z,70.50
2018-11-28T07:08:50.910Z,70.50
2018-11-28T07:11:19.423Z,70.70
2018-11-28T07:13:47.960Z,70.80
2018-11-28T07:16:16.375Z,70.90
2018-11-28T07:21:31.667Z,70.20
2018-11-28T07:24:00.101Z,71.00
2018-11-28T07:26:28.547Z,70.90
2018-11-28T07:28:56.982Z,70.90
2018-11-28T07:31:25.425Z,70.90
2018-11-28T07:33:53.853Z,70.80
2018-11-28T07:36:22.267Z,71.00
2018-11-28T07:38:50.668Z,71.10
2018-11-28T07:41:19.106Z,71.00
2018-11-28T07:43:47.545Z,71.00
2018-11-28T07:46:16.057Z,71.60
2018-11-28T07:48:44.457Z,70.80
2018-11-28T07:51:12.862Z,70.70
2018-11-28T07:53:41.339Z,70.80
2018-11-28T07:56:09.834Z,70.80
2018-11-28T07:58:38.233Z,71.10
2018-11-28T08:01:07.083Z,71.30
